sensor_id;sensor_type;location;lat;lon;timestamp;P1;durP1;ratioP1;P2;durP2;ratioP2
30519;SDS011;17300;50.374;8.006;2023-11-19T00:01:00;0.40;;;0.40;;
30519;SDS011;17300;50.374;8.006;2023-11-19T00:03:27;0.43;;;0.43;;
30519;SDS011;17300;50.374;8.006;2023-11-19T00:05:53;0.40;;;0.40;;
30519;SDS011;17300;50.374;8.006;2023-11-19T00:08:20;0.67;;;0.50;;
30519;SDS011;17300;50.374;8.006;2023-11-19T00:10:49;0.47;;;0.40;;
30519;SDS011;17300;50.374;8.006;2023-11-19T00:13:18;0.40;;;0.40;;
30519;SDS011;17300;50.374;8.006;2023-11-19T00:15:45;0.40;;;0.40;;
30519;SDS011;17300;50.374;8.006;2023-11-19T00:18:12;0.47;;;0.47;;
30519;SDS011;17300;50.374;8.006;2023-11-19T00:20:39;0.50;;;0.40;;
30519;SDS011;17300;50.374;8.006;2023-11-19T00:23:06;0.50;;;0.50;;
30519;SDS011;17300;50.374;8.006;2023-11-19T00:25:33;0.50;;;0.50;;
30519;SDS011;17300;50.374;8.006;2023-11-19T00:27:59;1.63;;;1.20;;
30519;SDS011;17300;50.374;8.006;2023-11-19T00:30:27;0.70;;;0.70;;
30519;SDS011;17300;50.374;8.006;2023-11-19T00:32:56;2.70;;;0.50;;
30519;SDS011;17300;50.374;8.006;2023-11-19T00:35:22;0.60;;;0.60;;
30519;SDS011;17300;50.374;8.006;2023-11-19T00:37:49;0.40;;;0.40;;
30519;SDS011;17300;50.374;8.006;2023-11-19T00:40:16;0.50;;;0.50;;
30519;SDS011;17300;50.374;8.006;2023-11-19T00:42:43;0.60;;;0.60;;
30519;SDS011;17300;50.374;8.006;2023-11-19T00:45:10;1.33;;;0.50;;
30519;SDS011;17300;50.374;8.006;2023-11-19T00:47:39;0.50;;;0.50;;
30519;SDS011;17300;50.374;8.006;2023-11-19T00:50:06;0.70;;;0.70;;
30519;SDS011;17300;50.374;8.006;2023-11-19T00:52:35;0.50;;;0.50;;
30519;SDS011;17300;50.374;8.006;2023-11-19T00:55:02;0.70;;;0.60;;
30519;SDS011;17300;50.374;8.006;2023-11-19T00:57:29;0.50;;;0.50;;
30519;SDS011;17300;50.374;8.006;2023-11-19T00:59:57;0.50;;;0.50;;
30519;SDS011;17300;50.374;8.006;2023-11-19T01:02:24;1.03;;;0.53;;
30519;SDS011;17300;50.374;8.006;2023-11-19T01:04:52;0.80;;;0.60;;
30519;SDS011;17300;50.374;8.006;2023-11-19T01:07:20;0.60;;;0.60;;
30519;SDS011;17300;50.374;8.006;2023-11-19T01:09:49;0.60;;;0.60;;
30519;SDS011;17300;50.374;8.006;2023-11-19T01:12:15;0.60;;;0.60;;
30519;SDS011;17300;50.374;8.006;2023-11-19T01:14:42;0.70;;;0.70;;
30519;SDS011;17300;50.374;8.006;2023-11-19T01:17:09;0.50;;;0.50;;
30519;SDS011;17300;50.374;8.006;2023-11-19T01:19:35;0.60;;;0.60;;
30519;SDS011;17300;50.374;8.006;2023-11-19T01:22:03;0.60;;;0.50;;
30519;SDS011;17300;50.374;8.006;2023-11-19T01:24:30;0.60;;;0.60;;
30519;SDS011;17300;50.374;8.006;2023-11-19T01:26:57;0.50;;;0.50;;
30519;SDS011;17300;50.374;8.006;2023-11-19T01:29:25;0.50;;;0.50;;
30519;SDS011;17300;50.374;8.006;2023-11-19T01:31:51;0.50;;;0.50;;
30519;SDS011;17300;50.374;8.006;2023-11-19T01:34:18;0.43;;;0.43;;
30519;SDS011;17300;50.374;8.006;2023-11-19T01:36:46;0.40;;;0.40;;
30519;SDS011;17300;50.374;8.006;2023-11-19T01:39:15;0.50;;;0.50;;
30519;SDS011;17300;50.374;8.006;2023-11-19T01:41:42;0.50;;;0.50;;
30519;SDS011;17300;50.374;8.006;2023-11-19T01:44:09;0.67;;;0.60;;
30519;SDS011;17300;50.374;8.006;2023-11-19T01:46:37;0.50;;;0.40;;
30519;SDS011;17300;50.374;8.006;2023-11-19T01:49:06;0.40;;;0.40;;
30519;SDS011;17300;50.374;8.006;2023-11-19T01:51:33;0.50;;;0.50;;
30519;SDS011;17300;50.374;8.006;2023-11-19T01:54:00;0.50;;;0.50;;
30519;SDS011;17300;50.374;8.006;2023-11-19T01:56:29;0.50;;;0.50;;
30519;SDS011;17300;50.374;8.006;2023-11-19T01:58:57;0.50;;;0.50;;
30519;SDS011;17300;50.374;8.006;2023-11-19T02:01:25;0.40;;;0.40;;
30519;SDS011;17300;50.374;8.006;2023-11-19T02:03:51;0.60;;;0.60;;
30519;SDS011;17300;50.374;8.006;2023-11-19T02:06:18;0.50;;;0.50;;
30519;SDS011;17300;50.374;8.006;2023-11-19T02:08:46;0.73;;;0.73;;
30519;SDS011;17300;50.374;8.006;2023-11-19T02:11:12;0.70;;;0.70;;
30519;SDS011;17300;50.374;8.006;2023-11-19T02:13:40;0.67;;;0.67;;
30519;SDS011;17300;50.374;8.006;2023-11-19T02:16:08;0.70;;;0.70;;
30519;SDS011;17300;50.374;8.006;2023-11-19T02:18:36;0.70;;;0.70;;
30519;SDS011;17300;50.374;8.006;2023-11-19T02:21:03;0.80;;;0.80;;
30519;SDS011;17300;50.374;8.006;2023-11-19T02:23:30;0.80;;;0.80;;
30519;SDS011;17300;50.374;8.006;2023-11-19T02:25:59;0.90;;;0.90;;
30519;SDS011;17300;50.374;8.006;2023-11-19T02:28:31;0.80;;;0.73;;
30519;SDS011;17300;50.374;8.006;2023-11-19T02:30:59;0.70;;;0.70;;
30519;SDS011;17300;50.374;8.006;2023-11-19T02:33:25;0.77;;;0.77;;
30519;SDS011;17300;50.374;8.006;2023-11-19T02:35:52;0.77;;;0.77;;
30519;SDS011;17300;50.374;8.006;2023-11-19T02:38:19;0.67;;;0.67;;
30519;SDS011;17300;50.374;8.006;2023-11-19T02:40:46;0.70;;;0.70;;
30519;SDS011;17300;50.374;8.006;2023-11-19T02:43:14;1.53;;;0.80;;
30519;SDS011;17300;50.374;8.006;2023-11-19T02:45:42;0.60;;;0.60;;
30519;SDS011;17300;50.374;8.006;2023-11-19T02:48:10;0.67;;;0.67;;
30519;SDS011;17300;50.374;8.006;2023-11-19T02:50:37;0.87;;;0.80;;
30519;SDS011;17300;50.374;8.006;2023-11-19T02:53:04;0.70;;;0.70;;
30519;SDS011;17300;50.374;8.006;2023-11-19T02:55:31;0.60;;;0.60;;
30519;SDS011;17300;50.374;8.006;2023-11-19T02:58:02;1.10;;;0.90;;
30519;SDS011;17300;50.374;8.006;2023-11-19T03:00:34;0.53;;;0.53;;
30519;SDS011;17300;50.374;8.006;2023-11-19T03:03:08;0.50;;;0.50;;
30519;SDS011;17300;50.374;8.006;2023-11-19T03:05:45;0.40;;;0.40;;
30519;SDS011;17300;50.374;8.006;2023-11-19T03:08:12;0.40;;;0.40;;
30519;SDS011;17300;50.374;8.006;2023-11-19T03:10:39;0.30;;;0.30;;
30519;SDS011;17300;50.374;8.006;2023-11-19T03:13:06;0.30;;;0.30;;
30519;SDS011;17300;50.374;8.006;2023-11-19T03:15:38;0.20;;;0.20;;
30519;SDS011;17300;50.374;8.006;2023-11-19T03:18:04;0.20;;;0.20;;
30519;SDS011;17300;50.374;8.006;2023-11-19T03:20:32;0.27;;;0.27;;
30519;SDS011;17300;50.374;8.006;2023-11-19T03:22:59;0.30;;;0.30;;
30519;SDS011;17300;50.374;8.006;2023-11-19T03:25:26;0.30;;;0.30;;
30519;SDS011;17300;50.374;8.006;2023-11-19T03:27:58;0.60;;;0.20;;
30519;SDS011;17300;50.374;8.006;2023-11-19T03:30:25;0.10;;;0.10;;
30519;SDS011;17300;50.374;8.006;2023-11-19T03:32:53;0.10;;;0.10;;
30519;SDS011;17300;50.374;8.006;2023-11-19T03:35:20;0.30;;;0.30;;
30519;SDS011;17300;50.374;8.006;2023-11-19T03:37:48;0.10;;;0.10;;
30519;SDS011;17300;50.374;8.006;2023-11-19T03:40:14;0.20;;;0.20;;
30519;SDS011;17300;50.374;8.006;2023-11-19T03:42:41;0.30;;;0.20;;
30519;SDS011;17300;50.374;8.006;2023-11-19T03:45:09;0.10;;;0.10;;
30519;SDS011;17300;50.374;8.006;2023-11-19T03:47:36;2.40;;;0.10;;
30519;SDS011;17300;50.374;8.006;2023-11-19T03:50:03;0.10;;;0.10;;
30519;SDS011;17300;50.374;8.006;2023-11-19T03:52:30;0.20;;;0.20;;
30519;SDS011;17300;50.374;8.006;2023-11-19T03:54:58;0.10;;;0.10;;
30519;SDS011;17300;50.374;8.006;2023-11-19T03:57:25;0.10;;;0.10;;
30519;SDS011;17300;50.374;8.006;2023-11-19T03:59:53;0.17;;;0.17;;
30519;SDS011;17300;50.374;8.006;2023-11-19T04:02:20;0.10;;;0.10;;
30519;SDS011;17300;50.374;8.006;2023-11-19T04:04:47;0.10;;;0.10;;
30519;SDS011;17300;50.374;8.006;2023-11-19T04:07:14;0.20;;;0.20;;
30519;SDS011;17300;50.374;8.006;2023-11-19T04:09:40;0.27;;;0.27;;
30519;SDS011;17300;50.374;8.006;2023-11-19T04:12:08;0.10;;;0.10;;
30519;SDS011;17300;50.374;8.006;2023-11-19T04:14:36;0.20;;;0.20;;
30519;SDS011;17300;50.374;8.006;2023-11-19T04:17:02;0.20;;;0.20;;
30519;SDS011;17300;50.374;8.006;2023-11-19T04:19:29;0.43;;;0.13;;
30519;SDS011;17300;50.374;8.006;2023-11-19T04:21:57;0.87;;;0.40;;
30519;SDS011;17300;50.374;8.006;2023-11-19T04:24:24;1.17;;;0.20;;
30519;SDS011;17300;50.374;8.006;2023-11-19T04:26:50;0.30;;;0.10;;
30519;SDS011;17300;50.374;8.006;2023-11-19T04:29:19;0.10;;;0.10;;
30519;SDS011;17300;50.374;8.006;2023-11-19T04:31:45;0.20;;;0.20;;
30519;SDS011;17300;50.374;8.006;2023-11-19T04:34:12;0.10;;;0.10;;
30519;SDS011;17300;50.374;8.006;2023-11-19T04:36:39;1.67;;;0.20;;
30519;SDS011;17300;50.374;8.006;2023-11-19T04:39:05;0.33;;;0.33;;
30519;SDS011;17300;50.374;8.006;2023-11-19T04:41:34;0.10;;;0.10;;
30519;SDS011;17300;50.374;8.006;2023-11-19T04:44:01;0.20;;;0.10;;
30519;SDS011;17300;50.374;8.006;2023-11-19T04:46:29;0.10;;;0.10;;
30519;SDS011;17300;50.374;8.006;2023-11-19T04:48:56;0.20;;;0.20;;
30519;SDS011;17300;50.374;8.006;2023-11-19T04:51:23;1.10;;;0.20;;
30519;SDS011;17300;50.374;8.006;2023-11-19T04:53:49;0.10;;;0.10;;
30519;SDS011;17300;50.374;8.006;2023-11-19T06:40:02;0.40;;;0.20;;
30519;SDS011;17300;50.374;8.006;2023-11-19T06:42:47;0.23;;;0.20;;
30519;SDS011;17300;50.374;8.006;2023-11-19T06:45:27;0.30;;;0.30;;
30519;SDS011;17300;50.374;8.006;2023-11-19T06:48:30;0.43;;;0.30;;
30519;SDS011;17300;50.374;8.006;2023-11-19T06:54:38;0.23;;;0.20;;
30519;SDS011;17300;50.374;8.006;2023-11-19T06:57:12;0.30;;;0.20;;
30519;SDS011;17300;50.374;8.006;2023-11-19T06:59:39;0.30;;;0.30;;
30519;SDS011;17300;50.374;8.006;2023-11-19T07:02:08;0.50;;;0.30;;
30519;SDS011;17300;50.374;8.006;2023-11-19T07:04:39;0.23;;;0.23;;
30519;SDS011;17300;50.374;8.006;2023-11-19T07:07:07;0.30;;;0.30;;
30519;SDS011;17300;50.374;8.006;2023-11-19T07:09:37;0.40;;;0.40;;
30519;SDS011;17300;50.374;8.006;2023-11-19T07:12:35;0.70;;;0.53;;
30519;SDS011;17300;50.374;8.006;2023-11-19T07:15:07;1.30;;;0.70;;
30519;SDS011;17300;50.374;8.006;2023-11-19T07:17:38;1.57;;;0.50;;
30519;SDS011;17300;50.374;8.006;2023-11-19T07:20:07;0.57;;;0.50;;
30519;SDS011;17300;50.374;8.006;2023-11-19T07:22:38;0.50;;;0.50;;
30519;SDS011;17300;50.374;8.006;2023-11-19T07:25:05;0.73;;;0.40;;
30519;SDS011;17300;50.374;8.006;2023-11-19T07:27:34;0.50;;;0.50;;
30519;SDS011;17300;50.374;8.006;2023-11-19T07:30:01;1.37;;;0.60;;
30519;SDS011;17300;50.374;8.006;2023-11-19T07:32:28;0.50;;;0.50;;
30519;SDS011;17300;50.374;8.006;2023-11-19T07:34:55;1.10;;;0.60;;
30519;SDS011;17300;50.374;8.006;2023-11-19T07:37:22;1.40;;;0.60;;
30519;SDS011;17300;50.374;8.006;2023-11-19T07:39:48;2.53;;;0.80;;
30519;SDS011;17300;50.374;8.006;2023-11-19T07:42:15;1.47;;;0.70;;
30519;SDS011;17300;50.374;8.006;2023-11-19T07:44:44;1.63;;;0.90;;
30519;SDS011;17300;50.374;8.006;2023-11-19T07:47:11;0.97;;;0.60;;
30519;SDS011;17300;50.374;8.006;2023-11-19T07:49:38;2.80;;;0.60;;
30519;SDS011;17300;50.374;8.006;2023-11-19T07:52:05;2.10;;;0.90;;
30519;SDS011;17300;50.374;8.006;2023-11-19T07:54:32;3.63;;;1.00;;
30519;SDS011;17300;50.374;8.006;2023-11-19T07:56:58;2.10;;;0.90;;
30519;SDS011;17300;50.374;8.006;2023-11-19T07:59:26;1.10;;;0.77;;
30519;SDS011;17300;50.374;8.006;2023-11-19T08:01:54;1.67;;;1.00;;
30519;SDS011;17300;50.374;8.006;2023-11-19T08:04:21;1.77;;;0.90;;
30519;SDS011;17300;50.374;8.006;2023-11-19T08:06:48;3.40;;;1.03;;
30519;SDS011;17300;50.374;8.006;2023-11-19T08:09:14;2.10;;;0.90;;
30519;SDS011;17300;50.374;8.006;2023-11-19T08:11:41;3.07;;;1.20;;
30519;SDS011;17300;50.374;8.006;2023-11-19T08:14:08;3.10;;;1.07;;
30519;SDS011;17300;50.374;8.006;2023-11-19T08:16:35;2.97;;;0.90;;
30519;SDS011;17300;50.374;8.006;2023-11-19T08:19:04;1.80;;;0.90;;
30519;SDS011;17300;50.374;8.006;2023-11-19T08:21:31;3.30;;;1.10;;
30519;SDS011;17300;50.374;8.006;2023-11-19T08:23:57;1.60;;;0.90;;
30519;SDS011;17300;50.374;8.006;2023-11-19T08:26:24;2.30;;;1.00;;
30519;SDS011;17300;50.374;8.006;2023-11-19T08:28:51;3.47;;;1.27;;
30519;SDS011;17300;50.374;8.006;2023-11-19T08:31:18;3.40;;;0.80;;
30519;SDS011;17300;50.374;8.006;2023-11-19T08:33:45;3.00;;;1.10;;
30519;SDS011;17300;50.374;8.006;2023-11-19T08:36:16;4.10;;;1.40;;
30519;SDS011;17300;50.374;8.006;2023-11-19T08:38:43;2.50;;;1.00;;
30519;SDS011;17300;50.374;8.006;2023-11-19T08:41:09;2.23;;;1.00;;
30519;SDS011;17300;50.374;8.006;2023-11-19T08:43:36;4.83;;;1.20;;
30519;SDS011;17300;50.374;8.006;2023-11-19T08:46:04;3.17;;;1.57;;
30519;SDS011;17300;50.374;8.006;2023-11-19T08:48:36;3.13;;;1.10;;
30519;SDS011;17300;50.374;8.006;2023-11-19T08:51:02;3.40;;;1.27;;
30519;SDS011;17300;50.374;8.006;2023-11-19T08:53:31;3.70;;;1.37;;
30519;SDS011;17300;50.374;8.006;2023-11-19T08:55:58;3.00;;;1.23;;
30519;SDS011;17300;50.374;8.006;2023-11-19T08:58:25;1.93;;;0.97;;
30519;SDS011;17300;50.374;8.006;2023-11-19T09:00:52;2.13;;;1.40;;
30519;SDS011;17300;50.374;8.006;2023-11-19T09:03:19;3.43;;;1.13;;
30519;SDS011;17300;50.374;8.006;2023-11-19T09:05:46;3.73;;;1.37;;
30519;SDS011;17300;50.374;8.006;2023-11-19T09:08:13;3.90;;;1.23;;
30519;SDS011;17300;50.374;8.006;2023-11-19T09:10:41;3.80;;;1.57;;
30519;SDS011;17300;50.374;8.006;2023-11-19T09:13:08;4.50;;;1.43;;
30519;SDS011;17300;50.374;8.006;2023-11-19T09:15:34;4.47;;;1.50;;
30519;SDS011;17300;50.374;8.006;2023-11-19T09:18:01;3.80;;;1.40;;
30519;SDS011;17300;50.374;8.006;2023-11-19T09:20:29;3.77;;;1.50;;
30519;SDS011;17300;50.374;8.006;2023-11-19T09:23:02;3.23;;;1.70;;
30519;SDS011;17300;50.374;8.006;2023-11-19T09:25:29;3.67;;;1.43;;
30519;SDS011;17300;50.374;8.006;2023-11-19T09:27:57;3.77;;;1.43;;
30519;SDS011;17300;50.374;8.006;2023-11-19T09:30:24;3.63;;;1.70;;
30519;SDS011;17300;50.374;8.006;2023-11-19T09:32:50;7.10;;;1.90;;
30519;SDS011;17300;50.374;8.006;2023-11-19T09:35:17;3.60;;;1.77;;
30519;SDS011;17300;50.374;8.006;2023-11-19T09:37:44;3.53;;;1.70;;
30519;SDS011;17300;50.374;8.006;2023-11-19T09:40:11;4.73;;;1.87;;
30519;SDS011;17300;50.374;8.006;2023-11-19T09:42:39;3.70;;;1.73;;
30519;SDS011;17300;50.374;8.006;2023-11-19T09:45:12;4.50;;;1.70;;
30519;SDS011;17300;50.374;8.006;2023-11-19T09:47:42;3.73;;;1.80;;
30519;SDS011;17300;50.374;8.006;2023-11-19T09:50:10;4.77;;;1.63;;
30519;SDS011;17300;50.374;8.006;2023-11-19T09:52:41;3.87;;;1.43;;
30519;SDS011;17300;50.374;8.006;2023-11-19T09:55:08;4.70;;;1.67;;
30519;SDS011;17300;50.374;8.006;2023-11-19T09:57:35;5.90;;;2.00;;
30519;SDS011;17300;50.374;8.006;2023-11-19T10:00:05;3.30;;;1.43;;
30519;SDS011;17300;50.374;8.006;2023-11-19T10:02:34;6.97;;;1.67;;
30519;SDS011;17300;50.374;8.006;2023-11-19T10:05:02;4.07;;;1.67;;
30519;SDS011;17300;50.374;8.006;2023-11-19T10:07:32;4.10;;;1.73;;
30519;SDS011;17300;50.374;8.006;2023-11-19T10:09:59;6.23;;;1.70;;
30519;SDS011;17300;50.374;8.006;2023-11-19T10:12:26;4.83;;;1.60;;
30519;SDS011;17300;50.374;8.006;2023-11-19T10:14:53;3.97;;;1.50;;
30519;SDS011;17300;50.374;8.006;2023-11-19T10:17:26;3.57;;;1.73;;
30519;SDS011;17300;50.374;8.006;2023-11-19T10:19:55;3.50;;;1.70;;
30519;SDS011;17300;50.374;8.006;2023-11-19T10:22:22;3.77;;;1.43;;
30519;SDS011;17300;50.374;8.006;2023-11-19T10:24:51;3.13;;;1.53;;
30519;SDS011;17300;50.374;8.006;2023-11-19T10:27:18;3.23;;;1.60;;
30519;SDS011;17300;50.374;8.006;2023-11-19T10:29:45;3.90;;;1.50;;
30519;SDS011;17300;50.374;8.006;2023-11-19T10:32:12;4.10;;;1.53;;
30519;SDS011;17300;50.374;8.006;2023-11-19T10:34:38;4.00;;;1.50;;
30519;SDS011;17300;50.374;8.006;2023-11-19T10:37:07;5.63;;;1.70;;
30519;SDS011;17300;50.374;8.006;2023-11-19T10:42:20;3.78;;;1.50;;
30519;SDS011;17300;50.374;8.006;2023-11-19T10:44:47;3.22;;;1.80;;
30519;SDS011;17300;50.374;8.006;2023-11-19T10:47:14;3.63;;;1.42;;
30519;SDS011;17300;50.374;8.006;2023-11-19T10:49:43;3.97;;;1.92;;
30519;SDS011;17300;50.374;8.006;2023-11-19T10:52:12;4.35;;;1.50;;
30519;SDS011;17300;50.374;8.006;2023-11-19T10:54:43;3.35;;;1.60;;
30519;SDS011;17300;50.374;8.006;2023-11-19T10:57:16;4.20;;;1.52;;
30519;SDS011;17300;50.374;8.006;2023-11-19T10:59:46;5.25;;;1.80;;
30519;SDS011;17300;50.374;8.006;2023-11-19T11:02:16;4.80;;;1.90;;
30519;SDS011;17300;50.374;8.006;2023-11-19T11:04:47;6.93;;;1.83;;
30519;SDS011;17300;50.374;8.006;2023-11-19T11:07:18;6.35;;;2.13;;
30519;SDS011;17300;50.374;8.006;2023-11-19T11:09:50;3.40;;;2.00;;
30519;SDS011;17300;50.374;8.006;2023-11-19T11:12:17;4.95;;;1.63;;
30519;SDS011;17300;50.374;8.006;2023-11-19T11:14:49;5.57;;;1.88;;
30519;SDS011;17300;50.374;8.006;2023-11-19T11:17:16;4.30;;;1.90;;
30519;SDS011;17300;50.374;8.006;2023-11-19T11:19:44;2.47;;;1.20;;
30519;SDS011;17300;50.374;8.006;2023-11-19T11:22:11;5.40;;;1.80;;
30519;SDS011;17300;50.374;8.006;2023-11-19T11:24:59;4.28;;;2.20;;
30519;SDS011;17300;50.374;8.006;2023-11-19T11:28:00;5.30;;;2.10;;
30519;SDS011;17300;50.374;8.006;2023-11-19T11:30:45;3.85;;;1.60;;
30519;SDS011;17300;50.374;8.006;2023-11-19T11:33:26;4.63;;;2.05;;
30519;SDS011;17300;50.374;8.006;2023-11-19T11:36:21;4.32;;;1.65;;
30519;SDS011;17300;50.374;8.006;2023-11-19T11:38:49;5.97;;;1.80;;
30519;SDS011;17300;50.374;8.006;2023-11-19T13:14:21;4.77;;;1.70;;
30519;SDS011;17300;50.374;8.006;2023-11-19T13:17:04;3.60;;;1.40;;
30519;SDS011;17300;50.374;8.006;2023-11-19T13:19:43;4.77;;;1.60;;
30519;SDS011;17300;50.374;8.006;2023-11-19T13:28:38;3.60;;;1.30;;
30519;SDS011;17300;50.374;8.006;2023-11-19T13:37:38;3.83;;;1.47;;
30519;SDS011;17300;50.374;8.006;2023-11-19T13:40:22;2.47;;;1.30;;
30519;SDS011;17300;50.374;8.006;2023-11-19T13:42:55;4.73;;;1.70;;
30519;SDS011;17300;50.374;8.006;2023-11-19T13:45:23;3.77;;;1.40;;
30519;SDS011;17300;50.374;8.006;2023-11-19T14:55:08;3.03;;;1.40;;
30519;SDS011;17300;50.374;8.006;2023-11-19T21:03:27;3.80;;;1.13;;
30519;SDS011;17300;50.374;8.006;2023-11-19T21:05:54;3.97;;;1.47;;
30519;SDS011;17300;50.374;8.006;2023-11-19T21:08:21;3.87;;;1.40;;
30519;SDS011;17300;50.374;8.006;2023-11-19T21:10:49;3.27;;;1.33;;
30519;SDS011;17300;50.374;8.006;2023-11-19T23:16:33;3.23;;;1.30;;
30519;SDS011;17300;50.374;8.006;2023-11-19T23:23:24;2.43;;;1.03;;
30519;SDS011;17300;50.374;8.006;2023-11-19T23:25:51;4.43;;;1.33;;
30519;SDS011;17300;50.374;8.006;2023-11-19T23:28:18;2.57;;;1.13;;
30519;SDS011;17300;50.374;8.006;2023-11-19T23:30:45;2.70;;;1.30;;
30519;SDS011;17300;50.374;8.006;2023-11-19T23:33:14;2.27;;;1.10;;
30519;SDS011;17300;50.374;8.006;2023-11-19T23:35:40;3.83;;;1.53;;
30519;SDS011;17300;50.374;8.006;2023-11-19T23:38:07;3.87;;;1.03;;
30519;SDS011;17300;50.374;8.006;2023-11-19T23:40:36;2.83;;;1.20;;
30519;SDS011;17300;50.374;8.006;2023-11-19T23:43:02;4.67;;;1.43;;
30519;SDS011;17300;50.374;8.006;2023-11-19T23:45:29;4.17;;;1.30;;
30519;SDS011;17300;50.374;8.006;2023-11-19T23:47:56;2.53;;;1.10;;
30519;SDS011;17300;50.374;8.006;2023-11-19T23:50:24;3.23;;;1.07;;
30519;SDS011;17300;50.374;8.006;2023-11-19T23:52:51;4.00;;;1.30;;
30519;SDS011;17300;50.374;8.006;2023-11-19T23:55:19;2.17;;;1.00;;
30519;SDS011;17300;50.374;8.006;2023-11-19T23:57:46;2.87;;;1.07;;
